• Join FlightAware (Why Join?)
  • Login
  • US Flag 
08:54AM EDT


 

Airport Tracker/Info


-or-


 

Live Flight TrackerFlight Track Log ✈ CTL17 ✈ 01-May-2013 ✈ KYIP - KBKL

Flight Track Log - Related Links

Times and Time Zones

All times are in EDT time to prevent confusion due to time zone crossing. See the CTL17 flight status page for this flight to view local times or setup timezone preferences in your user account.

Time Position Orientation Groundspeed Altitude Reporting Facility
EDT Latitude Longitude Course Direction KTS MPH feet Rate Location/Type
06:24PM 42.2239 -83.5528 218° Southwest 108 124 1,100  Level Cleveland Center
06:25PM 42.1958 -83.5822 218° Southwest 144 166 1,800 540 Climbing Cleveland Center
06:26PM 42.1575 -83.6197 216° Southwest 163 188 2,300 420 Climbing Cleveland Center
06:27PM 42.1158 -83.6175 178° South 151 174 2,800 300 Climbing Cleveland Center
06:28PM 42.0722 -83.6128 175° South 163 188 3,000 60 Climbing Cleveland Center
06:29PM 42.0286 -83.6050 172° South 163 188 3,000  Level Cleveland Center
06:30PM 41.9939 -83.5700 143° Southeast 164 189 3,000  Level Cleveland Center
06:31PM 41.9808 -83.5133 107° East 165 190 3,000  Level Cleveland Center
06:32PM 41.9614 -83.4567 115° Southeast 167 192 3,000 180 Level Cleveland Center
06:33PM 41.9464 -83.3917 107° East 160 184 3,400 360 Climbing Cleveland Center
06:34PM 41.9308 -83.3408 112° Southeast 159 183 3,800 360 Climbing Cleveland Center
06:35PM 41.9136 -83.2758 110° East 163 188 4,200 300 Climbing Cleveland Center
06:36PM 41.8983 -83.2222 111° Southeast 162 186 4,500 300 Climbing Cleveland Center
06:37PM 41.8831 -83.1631 109° East 159 183 4,900 240 Climbing Cleveland Center
06:38PM 41.8675 -83.1094 111° Southeast 163 188 5,100 60 Climbing Cleveland Center
06:39PM 41.8522 -83.0503 109° East 168 193 5,100  Level Cleveland Center
06:40PM 41.8347 -82.9911 112° Southeast 166 191 5,100  Level Cleveland Center
06:41PM 41.8169 -82.9375 114° Southeast 167 192 5,100  Level Cleveland Center
06:43PM 41.8167 -82.8890 90° East  Level FlightAware Approximate
06:44PM 41.7864 -82.8000 90° East 167 192 5,100  Level Cleveland Center
06:45PM 41.7686 -82.7464 114° Southeast 166 191 5,100  Level Cleveland Center
06:46PM 41.7569 -82.6931 106° East 166 191 5,100  Level Cleveland Center
06:46PM 41.7433 -82.6397 109° East 167 192 5,100  Level Cleveland Center
06:47PM 41.7278 -82.5864 111° Southeast 166 191 5,100 -60 Level Cleveland Center
06:48PM 41.7119 -82.5275 110° East 164 189 5,000  Descending Cleveland Center
06:49PM 41.7006 -82.4742 106° East 162 186 5,100  Climbing Cleveland Center
06:50PM 41.6867 -82.4183 108° East 164 189 5,000 -60 Descending Cleveland Center
06:51PM 41.6711 -82.3567 109° East 162 186 5,000  Level Cleveland Center
06:52PM 41.6572 -82.3033 109° East 162 186 5,000 -240 Level Cleveland Center
06:53PM 41.6414 -82.2419 109° East 173 199 4,600 -540 Descending Cleveland Center
06:54PM 41.6258 -82.1775 108° East 180 207 4,000 -600 Descending Cleveland Center
06:55PM 41.6119 -82.1106 105° East 182 209 3,400 -600 Descending Cleveland Center
06:56PM 41.5961 -82.0464 108° East 180 207 2,800 -600 Descending Cleveland Center
06:57PM 41.5783 -81.9822 110° East 175 201 2,200 -480 Descending Cleveland Center
06:59PM 41.5644 -81.9181 106° East 171 197 1,800 -360 Descending Cleveland Center
06:59PM 41.5525 -81.8622 106° East 165 190 1,500 -240 Descending Cleveland Center
07:01PM 41.5367 -81.8036 110° East 154 177 1,400 -180 Descending Cleveland Center
07:02PM 41.5225 -81.7508 110° East 147 169 1,200 -240 Descending Cleveland Center
07:02PM 41.5083 -81.7144 117° Southeast 104 120 1,000 -240 Descending Cleveland Center
07:04PM 41.5175 -81.6833 90° East  Level Estimated
07:11PM 41.5175 -81.6833 90° East  Level Estimated